Weather observations for the past three days for
Pleasanton Municipal Airport
Imperial (Metric)
Date Time (cdt) Wind (mph) Vis. (mi.) Weather Sky Cond. Temperature (ºF) Relative Humidity Wind Chill (°F) Heat Index (°F) Pressure Precipitation (in)
Air Dwpt 6 hour altimeter (in) sea level (mb) 1 hr 3 hr 6 hr
Max. Min.
07 20:35 E 9 10.00 Fair CLR 66.9 55 66% 29.94 0.0
07 20:15 E 7 10.00 Fair CLR 67.1 55 65% 29.94 0.0
07 19:55 E 10 G 16 10.00 Fair CLR 67.3 54.5 64% 29.92 0.0
07 19:35 E 8 10.00 Fair CLR 67.8 54.3 62% 29.94 0.0
07 19:15 NE 10 G 16 10.00 Fair CLR 68.9 54.7 61% 29.95 0.0
07 18:55 NE 10 10.00 Partly Cloudy SCT070 68.9 55 73.6 66.2 61% 29.95 0.0
07 18:35 NE 8 10.00 Partly Cloudy SCT025 SCT029 SCT070 69.4 55.4 61% 29.97 0.0
07 18:15 NE 10 10.00 Mostly Cloudy BKN025 BKN030 69.8 55.9 62% 29.96 0.0
07 17:55 NE 9 10.00 Overcast OVC027 69.8 56.7 63% 29.97 0.0
07 17:35 NE 7 G 16 10.00 Overcast OVC027 69.3 56.8 65% 29.99 0.0
07 17:15 NE 10 G 16 10.00 Overcast OVC027 69.3 56.8 65% 29.98 0.0
07 16:55 N 8 10.00 Overcast OVC027 70.7 57.9 64% 29.98 0.0
07 16:35 N 10 10.00 Overcast OVC027 70.7 58.3 65% 29.99 0.0
07 16:15 N 10 10.00 Overcast OVC025 72 58.5 63% 29.99 0.0
07 15:55 NE 12 10.00 Overcast OVC023 72.9 59.9 64% 29.97 0.0
07 15:35 NE 9 G 16 10.00 Mostly Cloudy BKN023 BKN030 BKN041 72.9 59.7 64% 29.97 0.0
07 15:15 NE 12 10.00 Overcast OVC023 72.5 59.4 63% 29.98 0.0
07 14:55 NE 10 10.00 Overcast OVC023 71.8 59 64% 29.99 0.0
07 14:35 NE 10 G 17 10.00 Mostly Cloudy BKN023 70.7 58.3 65% 29.99 0.0
07 14:15 NE 10 G 18 10.00 Partly Cloudy SCT025 70.7 57.9 64% 29.99 0.0
07 13:55 NE 12 10.00 Mostly Cloudy BKN025 69.3 57.4 66% 30 0.0
07 13:35 NE 8 G 17 10.00 Overcast OVC025 68.7 57.4 67% 30.02 0.0
07 13:15 NE 13 G 17 10.00 Overcast OVC025 66.9 56.7 70% 30.04 0.0
07 12:55 NE 10 G 18 10.00 Overcast OVC025 66.4 56.5 66.4 63.1 71% 30.04 0.0
07 12:35 NE 13 G 17 10.00 Overcast OVC020 65.3 56.1 72% 30.05 0.0
07 12:15 NE 12 G 21 10.00 Overcast OVC020 64.8 55.6 72% 30.06 0.0
07 11:55 NE 14 10.00 Overcast OVC018 63.9 55.4 74% 30.06 0.0
07 11:35 NE 9 G 17 10.00 Overcast OVC018 63.9 55.8 75% 30.06 0.0
07 11:15 NE 12 G 18 10.00 Overcast OVC018 64 55.8 75% 30.05 0.0
07 10:55 NE 13 G 20 10.00 Overcast OVC018 63.5 55.6 76% 30.05 0.0
07 10:35 NE 15 G 20 10.00 Overcast OVC018 63.5 55.8 76% 30.04 0.0
07 10:15 NE 14 G 18 10.00 Overcast OVC018 63.1 55.9 78% 30.04 0.0
07 09:55 NE 14 G 22 10.00 Overcast OVC018 63.3 55.8 77% 30.02 0.0
07 09:35 NE 13 G 20 10.00 Overcast OVC018 63.5 55.8 76% 30.03 0.0
07 09:15 NE 15 G 25 10.00 Overcast OVC016 63.5 55.6 76% 30.02 0.0
07 08:55 NE 14 G 21 10.00 Overcast OVC016 63.9 55.6 75% 30.01 0.0
07 08:35 NE 14 G 20 10.00 Overcast OVC016 64 55.6 74% 30.01 0.0
07 08:15 NE 12 G 23 10.00 Overcast OVC016 63.9 55.6 75% 30.01 0.0
07 07:55 NE 9 G 16 10.00 Overcast OVC016 63.7 55.6 75% 30 0.0
07 07:35 NE 15 G 21 10.00 Overcast OVC016 63.7 55.6 75% 30 0.0
07 07:15 NE 12 10.00 Overcast OVC016 64 55.8 75% 30 0.0
07 06:55 NE 9 10.00 Overcast OVC014 64.2 56.1 66.4 64.2 75% 30 0.0
07 06:35 NE 6 10.00 Overcast OVC014 64.4 56.3 75% 29.98 0.0
07 06:15 NE 8 10.00 Overcast OVC014 64.4 56.3 75% 29.98 0.0
07 05:55 NE 13 10.00 Overcast OVC014 64.4 56.3 75% 29.97 0.0
07 05:35 NE 7 10.00 Overcast OVC014 64.6 56.3 75% 29.96 0.0
07 05:15 NE 6 10.00 Overcast OVC014 64.6 56.5 75% 29.96 0.0
07 04:55 NE 12 10.00 Overcast OVC014 64.8 56.5 75% 29.95 0.0
07 04:35 NE 9 10.00 Overcast OVC014 64.9 56.7 75% 29.95 0.0
07 04:15 NE 12 10.00 Overcast OVC014 65.3 57.2 75% 29.96 0.0
07 03:55 NE 9 10.00 Overcast OVC016 65.3 57.2 75% 29.96 0.0
07 03:35 NE 8 10.00 Overcast OVC016 65.3 57.2 75% 29.95 0.0
07 03:15 NE 9 10.00 Overcast OVC016 65.3 57.2 75% 29.96 0.0
07 02:55 NE 9 10.00 Overcast OVC018 65.5 57.2 75% 29.97 0.0
07 02:15 NE 12 10.00 Overcast OVC018 65.7 57.2 74% 29.97 0.0
07 01:55 NE 7 10.00 Overcast OVC020 66.2 57.4 73% 29.97 0.0
07 01:35 NE 9 10.00 Overcast OVC020 66.2 57.7 74% 29.97 0.0
07 01:15 NE 9 10.00 Overcast OVC020 66.2 57.9 75% 29.96 0.0
07 00:55 NE 8 10.00 Overcast OVC020 66.4 57.7 82.9 66.2 74% 29.96 0.0
07 00:35 NE 10 G 18 10.00 Overcast OVC022 66.6 57.9 74% 29.96 0.0
07 00:15 NE 9 10.00 Overcast OVC022 66.7 58.1 74% 29.95 0.0
06 23:55 NE 10 10.00 Overcast OVC022 66.7 58.3 74% 29.95 0.0
06 23:35 NE 10 10.00 Overcast OVC022 66.7 58.1 74% 29.95 0.0
06 23:15 NE 9 G 17 10.00 Mostly Cloudy BKN024 BKN030 66.7 58.1 74% 29.94 0.0
06 22:55 E 12 G 17 10.00 Partly Cloudy SCT030 67.1 58.1 73% 29.93 0.0
06 22:35 NE 15 10.00 Fair CLR 67.1 58.3 73% 29.93 0.0
06 22:15 NE 10 G 20 10.00 Fair CLR 68 58.5 72% 29.92 0.0
06 21:55 NE 13 10.00 Fair CLR 68.4 59 72% 29.91 0.0
06 21:35 NE 13 10.00 Fair CLR 69.4 59.5 71% 29.9 0.0
06 21:15 NE 8 10.00 Fair CLR 70.7 60.8 71% 29.89 0.0
06 20:55 NE 10 10.00 Fair CLR 71.6 61.3 70% 29.88 0.0
06 20:35 NE 14 G 23 10.00 Fair CLR 72.7 61.3 68% 29.86 0.0
06 20:15 NE 13 G 20 10.00 Fair CLR 74.1 62.8 68% 29.85 0.0
06 19:55 NE 13 G 17 10.00 Fair CLR 76.1 64.9 68% 78 29.84 0.0
06 19:35 NE 13 G 22 10.00 Fair CLR 77.4 65.8 68% 79 29.82 0.0
06 19:15 NE 13 G 21 7.00 Fair CLR 81.1 70.2 69% 85 29.81 0.0
06 18:55 NE 14 G 18 7.00 Fair CLR 83.7 71.4 87.1 81.5 67% 89 29.8 0.0
06 18:35 NE 9 7.00 Fair CLR 86 71.1 61% 92 29.79 0.0
06 18:15 NE 7 7.00 Fair CLR 85.6 70.9 61% 91 29.79 0.0
06 17:55 NE 6 7.00 Fair CLR 85.8 70.9 61% 91 29.79 0.0
06 17:35 NE 8 7.00 Fair CLR 85.6 71.1 62% 91 29.78 0.0
06 17:15 NE 7 7.00 Fair CLR 86.2 71.2 61% 92 29.77 0.0
06 16:55 NE 9 7.00 Fair CLR 86.5 71.2 60% 92 29.78 0.0
06 16:35 NE 5 7.00 Fair CLR 86.9 71.4 60% 93 29.78 0.0
06 16:15 NE 6 7.00 Fair CLR 86 71.1 61% 92 29.78 0.0
06 15:55 NE 5 7.00 Partly Cloudy SCT031 SCT050 86 71.1 61% 92 29.79 0.0
06 15:35 NE 5 7.00 Mostly Cloudy SCT031 BKN050 85.5 71.1 62% 91 29.8 0.0
06 15:15 E 5 7.00 Partly Cloudy SCT050 86.4 71.2 61% 92 29.8 0.0
06 14:55 E 3 7.00 Partly Cloudy SCT038 SCT050 85.5 70.7 61% 91 29.81 0.0
06 14:35 E 5 7.00 Mostly Cloudy SCT036 BKN050 85.6 71.2 62% 91 29.81 0.0
06 14:15 E 6 7.00 Mostly Cloudy SCT026 BKN050 83.7 70.9 66% 88 29.82 0.0
06 13:55 N 3 5.00 Mostly Cloudy with Haze SCT026 BKN050 84 72 67% 90 29.82 0.0
06 13:35 NE 5 5.00 Mostly Cloudy with Haze BKN050 83.3 70.9 66% 88 29.83 0.0
06 13:15 NE 3 5.00 Overcast with Haze OVC050 81.7 71.6 72% 86 29.84 0.0
06 12:55 N 3 5.00 Overcast with Haze SCT033 OVC048 81.3 71.6 82 73.9 72% 86 29.85 0.0
06 12:35 NE 5 5.00 Overcast with Haze SCT022 SCT036 OVC050 81 72 74% 85 29.85 0.0
06 12:15 NE 3 5.00 Overcast with Haze BKN021 BKN029 OVC050 81.9 71.4 71% 86 29.85 0.0
06 11:55 Calm 5.00 Mostly Cloudy with Haze SCT018 SCT024 BKN034 81.1 71.2 72% 85 29.85 0.0
06 11:35 Calm 5.00 Overcast with Haze SCT016 BKN024 OVC049 79.7 71.6 76% 83 29.85 0.0
06 11:15 Calm 5.00 Overcast with Haze BKN014 BKN023 OVC044 79.3 72 78% 83 29.84 0.0
06 10:55 Calm 5.00 Overcast with Haze BKN014 BKN020 OVC024 78.8 72.3 81% 82 29.83 0.0
06 10:35 Calm 5.00 Overcast with Haze BKN012 BKN021 OVC033 78.4 72 81% 81 29.83 0.0
06 10:15 E 3 5.00 Overcast with Haze BKN012 BKN021 OVC033 77.9 72 82% 80 29.82 0.0
06 09:55 E 5 5.00 Overcast with Haze OVC012 77.2 72 84% 79 29.81 0.0
06 09:35 SE 3 5.00 Overcast with Haze BKN012 OVC019 76.6 71.6 84% 78 29.8 0.0
06 09:15 SE 6 5.00 Overcast with Haze BKN010 BKN014 OVC021 76.5 71.8 86% 77 29.79 0.0
06 08:55 SE 6 5.00 Fog/Mist BKN010 OVC017 75.4 71.2 87% 75 29.79 0.0
06 08:35 SE 7 5.00 Fog/Mist SCT008 OVC017 75.2 71.2 88% 75 29.79 0.0
06 08:15 SE 5 5.00 Fog/Mist SCT010 OVC015 75 71.4 89% 74 29.79 0.0
06 07:55 SE 3 5.00 Fog/Mist OVC013 74.5 71.1 89% 29.78 0.0
06 07:35 SE 3 4.00 Fog/Mist OVC011 74.1 71.1 90% 29.78 0.0
06 07:15 SE 3 4.00 Fog/Mist BKN011 OVC020 73.9 70.9 90% 29.78 0.0
06 06:55 SE 3 5.00 Fog/Mist OVC013 74.5 71.1 76.5 74.5 89% 29.78 0.0
06 06:35 Calm 7.00 Overcast OVC013 74.8 71.2 89% 29.78 0.0
06 06:15 Calm 7.00 Overcast OVC013 75.2 71.2 88% 75 29.78 0.0
06 05:55 Calm 7.00 Overcast OVC013 75.2 71.1 87% 75 29.77 0.0
06 05:35 Calm 7.00 Overcast OVC015 75.2 71.2 88% 75 29.77 0.0
06 05:15 SE 5 7.00 Overcast SCT017 OVC034 75.2 71.1 87% 75 29.77 0.0
06 04:55 SE 3 7.00 Overcast OVC032 75.4 71.1 87% 75 29.77 0.0
06 04:35 SE 5 7.00 Overcast OVC032 75.6 71.2 87% 76 29.77 0.0
06 04:15 SE 5 7.00 Overcast SCT016 SCT023 OVC030 75.7 71.1 85% 76 29.77 0.0
06 03:55 SE 5 10.00 Overcast BKN016 OVC022 75.9 71.1 85% 76 29.78 0.0
06 03:35 SE 5 7.00 Overcast OVC021 76.1 71.1 84% 77 29.77 0.0
06 03:15 SE 5 10.00 Overcast SCT016 OVC021 76.1 70.9 84% 77 29.78 0.0
06 02:55 SE 5 10.00 Overcast OVC021 76.1 70.9 84% 77 29.78 0.0
06 02:35 SE 6 10.00 Overcast BKN017 OVC023 76.1 70.9 84% 77 29.77 0.0
06 02:15 SE 6 10.00 Overcast OVC015 76.1 70.9 84% 77 29.78 0.0
06 01:55 SE 7 10.00 Overcast OVC015 76.1 70.7 83% 77 29.78 0.0
06 01:35 SE 7 10.00 Overcast OVC015 76.3 70.9 83% 77 29.79 0.0
06 01:15 SE 7 10.00 Overcast OVC015 76.5 70.9 83% 78 29.78 0.0
06 00:55 SE 8 10.00 Overcast OVC015 76.5 70.9 88.3 76.5 83% 78 29.79 0.0
06 00:15 SE 8 10.00 Overcast OVC015 76.6 71.2 83% 78 29.79 0.0
05 23:55 Calm 10.00 Overcast OVC015 76.8 71.2 83% 78 29.79 0.0
05 23:35 SE 12 10.00 Overcast OVC017 77 71.6 83% 78 29.79 0.0
05 23:15 SE 8 10.00 Overcast OVC017 77.2 71.8 84% 79 29.78 0.0
05 22:55 E 8 10.00 Overcast OVC017 77.5 71.8 83% 79 29.77 0.0
05 22:35 E 7 10.00 Mostly Cloudy BKN019 77.5 71.8 83% 79 29.77 0.0
05 22:15 E 7 10.00 Mostly Cloudy BKN019 77.9 71.6 81% 80 29.76 0.0
05 21:55 E 6 10.00 Partly Cloudy SCT021 78.3 71.6 80% 81 29.75 0.0
05 21:35 SE 10 10.00 Fair CLR 79 71.6 78% 82 29.73 0.0
05 21:15 SE 10 G 17 10.00 Fair CLR 79.9 71.6 76% 83 29.72 0.0
05 20:55 SE 10 G 18 10.00 Fair CLR 80.6 71.6 74% 85 29.71 0.0
05 20:35 SE 10 G 17 10.00 Fair CLR 81.9 71.8 72% 87 29.7 0.0
05 20:15 SE 12 G 16 10.00 Fair CLR 82.8 71.8 70% 88 29.7 0.0
05 19:55 SE 13 10.00 Fair CLR 84 71.8 67% 89 29.69 0.0
05 19:35 SE 8 10.00 Fair CLR 86.2 71.8 62% 92 29.68 0.0
05 19:15 SE 10 G 17 10.00 Fair CLR 87.1 71.4 60% 93 29.68 0.0
05 18:55 SE 9 10.00 Fair CLR 88.3 70.7 91.8 82.8 56% 94 29.67 0.0
05 18:35 SE 8 10.00 Fair CLR 89.6 69.6 52% 95 29.67 0.0
05 18:15 SE 10 10.00 Fair CLR 90 70 52% 95 29.66 0.0
05 17:55 SE 12 G 17 10.00 Fair CLR 90.7 70.3 51% 97 29.67 0.0
05 17:35 SE 9 10.00 Partly Cloudy SCT050 91 70.3 51% 97 29.67 0.0
05 17:15 SE 8 10.00 Fair CLR 91.6 70.5 50% 98 29.67 0.0
05 16:55 SE 6 10.00 Partly Cloudy SCT050 91.6 70.7 51% 98 29.68 0.0
05 16:35 Calm 10.00 Partly Cloudy SCT050 90.5 70.3 52% 96 29.69 0.0
05 16:15 E 8 10.00 Partly Cloudy SCT046 90.7 70.9 52% 97 29.7 0.0
05 15:55 E 7 10.00 Fair CLR 90 70.5 53% 96 29.71 0.0
05 15:35 E 5 10.00 Fair CLR 88.9 70.7 55% 95 29.72 0.0
05 15:15 SE 5 10.00 Fair CLR 88.2 70.5 56% 94 29.73 0.0
05 14:35 SE 7 10.00 Partly Cloudy SCT035 86.9 70.5 58% 92 29.75 0.0
05 14:15 E 3 10.00 Partly Cloudy SCT035 86.5 70.2 58% 91 29.76 0.0
05 13:55 SE 7 10.00 Partly Cloudy SCT033 SCT039 85.3 69.6 60% 90 29.76 0.0
05 13:35 S 6 10.00 Partly Cloudy SCT029 84.4 69.4 61% 88 29.78 0.0
05 13:15 Calm 10.00 Partly Cloudy SCT029 83.7 69.6 63% 88 29.78 0.0
05 12:55 S 6 10.00 Mostly Cloudy BKN027 83.3 69.3 83.3 70.2 63% 87 29.79 0.0
05 12:35 S 5 10.00 Mostly Cloudy BKN025 BKN031 82.4 69.4 65% 86 29.79 0.0
05 12:15 S 6 10.00 Mostly Cloudy BKN022 80.1 68.9 69% 83 29.8 0.0
05 11:55 S 7 10.00 Mostly Cloudy BKN022 80.1 69.1 69% 83 29.8 0.0
05 11:35 S 7 10.00 Overcast OVC020 78.4 68.5 72% 81 29.8 0.0
05 11:15 S 6 10.00 Overcast OVC018 77.9 69.1 74% 80 29.8 0.0
05 10:35 S 7 10.00 Overcast OVC018 76.3 68.5 77% 78 29.8 0.0
05 10:15 S 5 10.00 Overcast OVC018 75.4 68.4 79% 76 29.8 0.0
05 09:55 SE 5 10.00 Overcast OVC018 74.3 68.2 81% 29.8 0.0
05 09:35 S 5 10.00 Overcast OVC018 73.6 68.2 83% 29.81 0.0
05 09:15 SE 3 10.00 Overcast OVC016 72.5 67.6 85% 29.81 0.0
05 08:55 SE 3 10.00 Overcast OVC016 72.1 67.6 86% 29.81 0.0
05 08:35 SE 3 10.00 Overcast OVC016 71.6 67.3 86% 29.81 0.0
05 08:15 Calm 10.00 Overcast OVC016 71.6 67.1 86% 29.8 0.0
05 07:55 Calm 10.00 Overcast OVC016 71.1 66.7 86% 29.8 0.0
05 07:35 S 3 10.00 Overcast OVC014 70.7 66.7 87% 29.79 0.0
05 07:15 S 5 10.00 Overcast OVC012 70.5 66.4 87% 29.79 0.0
05 06:55 S 7 10.00 Overcast OVC012 70.2 66.4 70.2 68 88% 29.78 0.0
05 06:35 S 6 10.00 Overcast OVC012 70 66.4 88% 29.77 0.0
05 06:15 S 6 10.00 Overcast OVC012 69.8 66.2 88% 29.77 0.0
05 05:55 S 6 10.00 Overcast OVC012 69.8 66.2 88% 29.78 0.0
05 05:35 S 7 10.00 Overcast OVC012 69.8 65.8 87% 29.78 0.0
05 05:15 S 6 10.00 Overcast OVC012 69.6 66 88% 29.78 0.0
05 04:55 S 7 10.00 Overcast OVC012 69.3 65.8 89% 29.77 0.0
05 04:35 S 6 10.00 Overcast OVC014 68.9 65.8 90% 29.78 0.0
05 04:15 SE 6 10.00 Overcast OVC014 68.5 65.7 91% 29.78 0.0
05 03:55 SE 5 10.00 Mostly Cloudy BKN014 68.4 65.5 91% 29.79 0.0
05 03:35 S 6 10.00 Overcast OVC014 68.9 65.7 89% 29.79 0.0
05 03:15 S 5 10.00 Overcast OVC014 68.5 65.7 91% 29.8 0.0
05 02:55 SE 3 10.00 Mostly Cloudy BKN016 68.2 65.3 91% 29.8 0.0
05 02:35 SE 3 10.00 Partly Cloudy SCT016 68.2 65.3 91% 29.81 0.0
05 02:15 S 5 10.00 Fair CLR 68.4 65.3 90% 29.82 0.0
05 01:55 S 6 10.00 Fair CLR 68.7 65.3 89% 29.83 0.0
05 01:35 SE 6 10.00 Fair CLR 69.1 65.3 88% 29.83 0.0
05 01:15 S 5 10.00 Fair CLR 69.3 65.3 87% 29.85 0.0
05 00:55 S 7 10.00 Fair CLR 69.8 65.1 82 69.8 85% 29.85 0.0
05 00:35 S 6 10.00 Fair CLR 70.2 64.9 84% 29.85 0.0
05 00:15 S 9 10.00 Fair CLR 70.7 65.1 83% 29.84 0.0
04 23:55 SE 9 10.00 Fair CLR 70.9 65.1 82% 29.85 0.0
04 23:35 S 9 10.00 Fair CLR 71.6 65.3 81% 29.85 0.0
04 23:15 SE 8 10.00 Fair CLR 71.8 65.3 80% 29.85 0.0
04 22:55 SE 9 10.00 Fair CLR 72.1 65.7 80% 29.85 0.0
04 22:35 SE 7 10.00 Fair CLR 72.5 65.5 79% 29.84 0.0
04 22:15 SE 7 10.00 Fair CLR 73.6 65.7 76% 29.85 0.0
04 21:55 SE 6 10.00 Fair CLR 73.9 65.7 75% 29.84 0.0
04 21:35 SE 7 10.00 Fair CLR 74.3 65.7 75% 29.83 0.0
04 21:15 SE 8 10.00 Fair CLR 75.2 65.3 71% 77 29.82 0.0
04 20:55 SE 6 10.00 Fair CLR 75.7 65.1 70% 77 29.82 0.0
Date Time (cdt) Wind (mph) Vis. (mi.) Weather Sky Cond. Air Dwpt Max. Min. Relative Humidity Wind Chill (°F) Heat Index (°F) altimeter (in) sea level (mb) 1 hr 3 hr 6 hr
6 hour
Temperature (ºF) Pressure Precipitation (in)